PWSweather.com
Personal Weather Stations
Station Observations
S56IPS
Mostec 12, MostecSI 8257

Mostec 12MostecSI 8257

Lat: 45.899181, Lon: 15.628339

Elevation: 143

Station Type: WX-2008

Latest ConditionsUpdated 4:05:02 AM GMT+01:01 Tuesday, Mar 3, 2015
Currently Today's Max Today's Min Today's Average
Temperature 37.4°F3.0°C 40.5°F4.7°C 37.4°F3.0°C 38.0°F3.3°C
Dew Point 37.1°F2.8°C 40.2°F4.6°C 37.1°F2.8°C 37.7°F3.2°C
Winds Calm Calm Calm Calm - Calm Calm
Wind Gusts -- -- - -
Humidity 99% 99% 99% 99%
Pressure 29.94 in1013.9 mb 29.94 in1013.9 mb 29.82 in1009.8 mb -
Precipitation - 7.90 in200.7 mm - -
Hour Temp Dew Point Humidity Winds Wind Gusts Pressure Precip Precip Rate Daily Precip Total
04:05 AM 37.4°F3.0°C 37.1°F2.8°C 99% Calm Calm -- 29.94 in1013.9 mb 0.00 in0.0 mm 0.00 in/hr0.0 mm/hr 7.90 in200.7 mm
04:00 AM 37.4°F3.0°C 37.1°F2.8°C 99% Calm Calm -- 29.94 in1013.9 mb 0.00 in0.0 mm 0.00 in/hr0.0 mm/hr 7.90 in200.7 mm
03:55 AM 37.4°F3.0°C 37.1°F2.8°C 99% Calm Calm -- 29.93 in1013.5 mb 0.00 in0.0 mm 0.00 in/hr0.0 mm/hr 7.90 in200.7 mm
03:50 AM 37.4°F3.0°C 37.1°F2.8°C 99% Calm Calm -- 29.93 in1013.5 mb 0.00 in0.0 mm 0.00 in/hr0.0 mm/hr 7.90 in200.7 mm
03:45 AM 37.4°F3.0°C 37.1°F2.8°C 99% Calm Calm -- 29.92 in1013.2 mb 0.00 in0.0 mm 0.00 in/hr0.0 mm/hr 7.90 in200.7 mm
03:40 AM 37.4°F3.0°C 37.1°F2.8°C 99% Calm Calm -- 29.92 in1013.2 mb 0.00 in0.0 mm 0.00 in/hr0.0 mm/hr 7.90 in200.7 mm
03:35 AM 37.4°F3.0°C 37.1°F2.8°C 99% Calm Calm -- 29.92 in1013.2 mb 0.00 in0.0 mm 0.00 in/hr0.0 mm/hr 7.90 in200.7 mm
03:30 AM 37.4°F3.0°C 37.1°F2.8°C 99% Calm Calm -- 29.92 in1013.2 mb 0.00 in0.0 mm 0.00 in/hr0.0 mm/hr 7.90 in200.7 mm
03:25 AM 37.4°F3.0°C 37.1°F2.8°C 99% Calm Calm -- 29.91 in1012.9 mb 0.00 in0.0 mm 0.00 in/hr0.0 mm/hr 7.90 in200.7 mm
03:20 AM 37.4°F3.0°C 37.1°F2.8°C 99% Calm Calm -- 29.91 in1012.9 mb 0.00 in0.0 mm 0.00 in/hr0.0 mm/hr 7.90 in200.7 mm
03:15 AM 37.4°F3.0°C 37.1°F2.8°C 99% Calm Calm -- 29.91 in1012.9 mb 0.00 in0.0 mm 0.00 in/hr0.0 mm/hr 7.90 in200.7 mm
03:10 AM 37.4°F3.0°C 37.1°F2.8°C 99% Calm Calm -- 29.90 in1012.5 mb 0.00 in0.0 mm 0.00 in/hr0.0 mm/hr 7.90 in200.7 mm
03:05 AM 37.4°F3.0°C 37.1°F2.8°C 99% Calm Calm -- 29.90 in1012.5 mb 0.00 in0.0 mm 0.00 in/hr0.0 mm/hr 7.90 in200.7 mm
03:00 AM 37.4°F3.0°C 37.1°F2.8°C 99% Calm Calm -- 29.89 in1012.2 mb 0.00 in0.0 mm 0.00 in/hr0.0 mm/hr 7.90 in200.7 mm
02:55 AM 37.4°F3.0°C 37.1°F2.8°C 99% Calm Calm -- 29.89 in1012.2 mb 1.18 in30.0 mm 0.00 in/hr0.0 mm/hr 7.90 in200.7 mm
02:50 AM 37.4°F3.0°C 37.1°F2.8°C 99% Calm Calm -- 29.88 in1011.9 mb 1.95 in49.5 mm 0.00 in/hr0.0 mm/hr 7.90 in200.7 mm
02:45 AM 37.4°F3.0°C 37.1°F2.8°C 99% Calm Calm -- 29.88 in1011.9 mb 2.55 in64.8 mm 0.00 in/hr0.0 mm/hr 7.90 in200.7 mm
02:40 AM 37.4°F3.0°C 37.1°F2.8°C 99% Calm Calm -- 29.87 in1011.5 mb 2.61 in66.3 mm 0.00 in/hr0.0 mm/hr 7.90 in200.7 mm
02:35 AM 37.4°F3.0°C 37.1°F2.8°C 99% Calm Calm -- 29.87 in1011.5 mb 3.54 in89.9 mm 0.00 in/hr0.0 mm/hr 7.90 in200.7 mm
02:30 AM 37.4°F3.0°C 37.1°F2.8°C 99% Calm Calm -- 29.87 in1011.5 mb 5.27 in133.9 mm 0.00 in/hr0.0 mm/hr 7.90 in200.7 mm
02:25 AM 37.4°F3.0°C 37.1°F2.8°C 99% Calm Calm -- 29.88 in1011.9 mb 6.98 in177.3 mm 0.00 in/hr0.0 mm/hr 7.90 in200.7 mm
02:20 AM 37.4°F3.0°C 37.1°F2.8°C 99% Calm Calm -- 29.87 in1011.5 mb 7.18 in182.4 mm 0.00 in/hr0.0 mm/hr 7.90 in200.7 mm
02:15 AM 37.4°F3.0°C 37.1°F2.8°C 99% Calm Calm -- 29.87 in1011.5 mb 7.95 in201.9 mm 0.00 in/hr0.0 mm/hr 7.90 in200.7 mm
02:10 AM 37.4°F3.0°C 37.1°F2.8°C 99% Calm Calm -- 29.86 in1011.2 mb 8.27 in210.1 mm 0.00 in/hr0.0 mm/hr 7.90 in200.7 mm
02:05 AM 37.4°F3.0°C 37.1°F2.8°C 99% Calm Calm -- 29.86 in1011.2 mb 8.78 in223.0 mm 0.00 in/hr0.0 mm/hr 7.90 in200.7 mm
02:00 AM 37.4°F3.0°C 37.1°F2.8°C 99% Calm Calm -- 29.86 in1011.2 mb 9.77 in248.2 mm 0.44 in/hr11.2 mm/hr 7.90 in200.7 mm
01:55 AM 37.4°F3.0°C 37.1°F2.8°C 99% Calm Calm -- 29.86 in1011.2 mb 9.37 in238.0 mm 6.00 in/hr152.4 mm/hr 7.76 in197.1 mm
01:50 AM 37.4°F3.0°C 37.1°F2.8°C 99% Calm Calm -- 29.86 in1011.2 mb 8.87 in225.3 mm 7.08 in/hr179.8 mm/hr 6.99 in177.5 mm
01:45 AM 37.4°F3.0°C 37.1°F2.8°C 99% Calm Calm -- 29.86 in1011.2 mb 8.28 in210.3 mm 0.00 in/hr0.0 mm/hr 6.37 in161.8 mm
01:40 AM 37.6°F3.1°C 37.3°F2.9°C 99% Calm Calm -- 29.85 in1010.8 mb 8.57 in217.7 mm 4.92 in/hr125.0 mm/hr 5.81 in147.6 mm
01:35 AM 37.6°F3.1°C 37.3°F2.9°C 99% Calm Calm -- 29.84 in1010.5 mb 8.16 in207.3 mm 8.88 in/hr225.6 mm/hr 5.39 in136.9 mm
01:30 AM 37.8°F3.2°C 37.5°F3.1°C 99% Calm Calm -- 29.84 in1010.5 mb 7.42 in188.5 mm 4.32 in/hr109.7 mm/hr 4.46 in113.3 mm
01:25 AM 37.9°F3.3°C 37.7°F3.2°C 99% Calm Calm -- 29.84 in1010.5 mb 7.06 in179.3 mm 0.00 in/hr0.0 mm/hr 3.70 in94.0 mm
01:20 AM 37.9°F3.3°C 37.7°F3.2°C 99% Calm Calm -- 29.84 in1010.5 mb 7.16 in181.9 mm 9.24 in/hr234.7 mm/hr 3.50 in88.9 mm
01:15 AM 37.9°F3.3°C 37.7°F3.2°C 99% Calm Calm -- 29.84 in1010.5 mb 6.39 in162.3 mm 0.24 in/hr6.1 mm/hr 3.41 in86.6 mm
01:10 AM 37.9°F3.3°C 37.7°F3.2°C 99% Calm Calm -- 29.83 in1010.2 mb 6.37 in161.8 mm 6.12 in/hr155.4 mm/hr 3.09 in78.5 mm
01:05 AM 38.5°F3.6°C 38.2°F3.4°C 99% Calm Calm -- 29.83 in1010.2 mb 5.86 in148.8 mm 18.96 in/hr481.6 mm/hr 2.59 in65.8 mm
01:00 AM 38.7°F3.7°C 38.4°F3.6°C 99% Calm Calm -- 29.83 in1010.2 mb 4.28 in108.7 mm 0.21 in/hr5.3 mm/hr 2.00 in50.8 mm
12:55 AM 38.8°F3.8°C 38.6°F3.7°C 99% Calm Calm -- 29.84 in1010.5 mb 4.09 in103.9 mm 3.36 in/hr85.3 mm/hr 1.81 in46.0 mm
12:50 AM 38.8°F3.8°C 38.6°F3.7°C 99% Calm Calm -- 29.83 in1010.2 mb 3.81 in96.8 mm 0.36 in/hr9.1 mm/hr 1.54 in39.1 mm
12:45 AM 38.8°F3.8°C 38.6°F3.7°C 99% Calm Calm -- 29.83 in1010.2 mb 3.78 in96.0 mm 10.20 in/hr259.1 mm/hr 1.50 in38.1 mm
12:40 AM 38.8°F3.8°C 38.6°F3.7°C 99% Calm Calm -- 29.83 in1010.2 mb 2.93 in74.4 mm 0.12 in/hr3.0 mm/hr 1.29 in32.8 mm
12:35 AM 39.0°F3.9°C 38.8°F3.8°C 99% Calm Calm -- 29.83 in1010.2 mb 2.92 in74.2 mm 11.52 in/hr292.6 mm/hr 1.28 in32.5 mm
12:30 AM 39.6°F4.2°C 39.3°F4.1°C 99% Calm Calm -- 29.83 in1010.2 mb 1.96 in49.8 mm 16.32 in/hr414.5 mm/hr 0.97 in24.6 mm
12:25 AM 39.9°F4.4°C 39.7°F4.3°C 99% Calm Calm -- 29.82 in1009.8 mb 0.60 in15.2 mm 0.00 in/hr0.0 mm/hr 0.59 in15.0 mm
12:20 AM 39.9°F4.4°C 39.7°F4.3°C 99% Calm Calm -- 29.82 in1009.8 mb 2.06 in52.3 mm 0.00 in/hr0.0 mm/hr 0.30 in7.6 mm
12:15 AM 40.1°F4.5°C 39.8°F4.3°C 99% Calm Calm -- 29.82 in1009.8 mb 2.19 in55.6 mm 2.16 in/hr54.9 mm/hr 0.30 in7.6 mm
12:10 AM 40.3°F4.6°C 40.0°F4.4°C 99% Calm Calm -- 29.82 in1009.8 mb 2.01 in51.1 mm 0.00 in/hr0.0 mm/hr 3.27 in83.1 mm
12:05 AM 40.5°F4.7°C 40.2°F4.6°C 99% Calm Calm -- 29.82 in1009.8 mb 2.43 in61.7 mm 0.00 in/hr0.0 mm/hr 3.27 in83.1 mm
12:00 AM 40.3°F4.6°C 40.0°F4.4°C 99% Calm Calm -- 29.82 in1009.8 mb 3.27 in83.1 mm 0.00 in/hr0.0 mm/hr 54.72 in1389.9 mm